Time;durP1;ratioP1;P1;durP2;ratioP2;P2;SDS_P1;SDS_P2;PMS_P1;PMS_P2;Temp;Humidity;BMP_temperature;BMP_pressure;BME280_temperature;BME280_humidity;BME280_pressure;Samples;Min_cycle;Max_cycle;Signal;HPM_P1;HPM_P2
2022/11/26 08:06:58;;;;;;;6.63;3.47;;;;;;;9.43;68.45;97902.78;2065195;27;1225317;-78
2022/11/26 08:07:59;;;;;;;6.10;3.72;;;;;;;9.26;70.58;97910.06;2105640;28;20322;-78
2022/11/26 08:09:02;;;;;;;6.07;3.75;;;;;;;9.16;70.16;97906.78;2097887;28;20783;-79
2022/11/26 08:10:05;;;;;;;4.45;2.92;;;;;;;8.60;71.91;97912.13;2095837;28;20680;-79
2022/11/26 08:11:18;;;;;;;5.40;3.50;;;;;;;9.28;71.68;97908.28;2094702;28;20208;-79
2022/11/26 08:12:19;;;;;;;5.55;3.80;;;;;;;10.28;68.72;97911.41;2087851;28;20674;-79
2022/11/26 08:13:21;;;;;;;4.57;2.88;;;;;;;10.77;66.12;97911.97;2094786;28;20950;-78
2022/11/26 08:14:22;;;;;;;8.63;2.85;;;;;;;11.20;65.21;97907.38;2094049;28;20341;-79
2022/11/26 08:15:24;;;;;;;5.07;2.05;;;;;;;11.35;64.68;97900.00;2095558;28;20188;-79
2022/11/26 08:16:26;;;;;;;7.55;3.05;;;;;;;12.09;63.06;97908.38;2094918;28;20193;-79
2022/11/26 08:17:29;;;;;;;10.68;3.35;;;;;;;12.27;61.20;97908.72;2095672;28;20223;-78
2022/11/26 08:18:31;;;;;;;6.68;2.45;;;;;;;12.64;60.50;97892.63;2096911;28;20235;-79
2022/11/26 08:19:32;;;;;;;4.97;2.42;;;;;;;13.05;59.17;97923.59;2094673;28;20218;-76
2022/11/26 08:20:34;;;;;;;4.32;2.53;;;;;;;13.49;58.25;97915.13;2096666;28;20195;-76
2022/11/26 08:21:35;;;;;;;6.75;3.00;;;;;;;13.68;57.05;97923.19;2097646;28;20802;-76
2022/11/26 08:22:40;;;;;;;6.13;3.50;;;;;;;13.55;57.08;97926.25;2094349;28;20199;-76
2022/11/26 08:23:41;;;;;;;13.07;3.90;;;;;;;13.75;56.45;97926.41;2102948;28;20550;-77
2022/11/26 08:24:42;;;;;;;10.70;3.03;;;;;;;13.78;56.30;97923.69;2103125;28;20227;-76
2022/11/26 08:25:44;;;;;;;10.38;3.65;;;;;;;13.88;55.57;97893.56;2094358;28;20211;-77
2022/11/26 08:27:05;;;;;;;6.28;3.25;;;;;;;14.48;54.43;97921.88;2093919;28;20640;-77
2022/11/26 08:28:07;;;;;;;6.78;3.10;;;;;;;13.78;54.38;97905.31;2095454;28;20216;-77
2022/11/26 08:29:08;;;;;;;7.45;3.63;;;;;;;13.43;55.75;97924.06;2094528;28;20678;-76
2022/11/26 08:30:10;;;;;;;4.88;3.50;;;;;;;12.80;57.83;97910.47;2094185;28;20290;-76
2022/11/26 08:31:15;;;;;;;18.08;10.13;;;;;;;13.15;58.16;97926.78;2094904;28;20304;-76
2022/11/26 08:32:16;;;;;;;7.75;4.88;;;;;;;13.94;55.68;97903.81;2102987;28;20233;-77
2022/11/26 08:33:18;;;;;;;9.60;6.07;;;;;;;13.73;55.55;97912.50;2097106;28;20195;-77
2022/11/26 08:34:19;;;;;;;3.85;2.97;;;;;;;13.30;56.47;97925.38;2097841;28;20313;-77
2022/11/26 08:35:20;;;;;;;4.32;2.55;;;;;;;12.67;58.45;97926.63;2096354;28;20197;-77
2022/11/26 08:36:43;;;;;;;6.03;2.90;;;;;;;11.67;61.75;97924.38;2094221;28;20204;-76
2022/11/26 08:37:45;;;;;;;3.13;2.33;;;;;;;11.67;61.33;97927.00;2095895;28;20568;-76
2022/11/26 08:38:46;;;;;;;4.95;2.63;;;;;;;11.68;61.86;97919.13;2095716;28;20821;-76
2022/11/26 08:39:47;;;;;;;5.35;2.63;;;;;;;11.41;62.43;97923.38;2094446;28;20239;-76
2022/11/26 08:40:49;;;;;;;8.38;2.80;;;;;;;10.81;62.77;97920.59;2095036;28;20658;-76
2022/11/26 08:41:52;;;;;;;6.22;2.75;;;;;;;11.30;63.31;97928.03;2095861;28;20691;-76
2022/11/26 08:42:53;;;;;;;4.32;2.50;;;;;;;11.44;62.25;97924.16;2095257;28;20224;-76
2022/11/26 08:43:55;;;;;;;6.72;3.03;;;;;;;12.01;61.29;97905.97;2094207;28;20200;-76
2022/11/26 08:45:12;;;;;;;11.00;2.97;;;;;;;11.65;63.07;97897.44;2084822;28;20205;-76
2022/11/26 08:46:13;;;;;;;9.63;2.65;;;;;;;12.50;61.29;97906.19;2081544;28;20648;-76
2022/11/26 08:47:15;;;;;;;7.38;2.53;;;;;;;12.46;60.18;97901.97;2081715;28;20312;-75
2022/11/26 08:48:16;;;;;;;4.95;2.33;;;;;;;13.01;59.87;97911.50;2091161;28;20679;-76
2022/11/26 08:49:18;;;;;;;6.90;2.70;;;;;;;13.30;58.17;97909.66;2088092;28;20303;-75
2022/11/26 08:50:19;;;;;;;4.95;1.75;;;;;;;14.74;53.82;97915.59;2094091;28;20679;-76
2022/11/26 08:51:21;;;;;;;9.15;2.90;;;;;;;14.93;53.68;97906.91;2086377;28;20280;-75
2022/11/26 08:52:22;;;;;;;6.32;2.10;;;;;;;14.99;53.99;97907.50;2087312;28;20239;-75
2022/11/26 08:53:25;;;;;;;8.20;2.25;;;;;;;15.38;52.52;97918.19;2090089;28;20228;-75
2022/11/26 08:54:27;;;;;;;7.43;2.20;;;;;;;13.92;55.64;97910.91;2086181;28;20228;-76
2022/11/26 08:55:28;;;;;;;14.73;2.72;;;;;;;14.95;53.37;97879.63;2086689;28;20205;-75
2022/11/26 08:56:50;;;;;;;9.00;2.65;;;;;;;16.97;50.64;97908.97;2086348;28;20196;-75
2022/11/26 08:57:52;;;;;;;8.23;2.20;;;;;;;18.01;48.07;97915.97;2087009;28;20208;-75
2022/11/26 08:58:53;;;;;;;7.63;2.20;;;;;;;17.74;48.10;97914.69;2087567;28;20196;-75
2022/11/26 08:59:55;;;;;;;8.27;2.42;;;;;;;18.38;46.52;97903.34;2086698;28;20224;-74
2022/11/26 09:00:56;;;;;;;7.28;2.10;;;;;;;17.42;48.31;97914.63;2087469;28;20194;-74
2022/11/26 09:02:04;;;;;;;8.25;2.50;;;;;;;16.29;50.55;97909.63;2086852;28;20193;-75
2022/11/26 09:03:06;;;;;;;7.40;2.30;;;;;;;16.87;50.36;97918.25;2086332;28;20268;-75
2022/11/26 09:04:08;;;;;;;7.18;2.75;;;;;;;17.36;49.23;97920.22;2085104;28;20208;-76
2022/11/26 09:05:09;;;;;;;7.90;3.00;;;;;;;16.91;50.25;97919.00;2087248;28;20201;-76
2022/11/26 09:06:10;;;;;;;11.25;2.80;;;;;;;16.96;49.55;97916.97;2088594;28;20288;-76
2022/11/26 09:07:12;;;;;;;10.70;2.15;;;;;;;16.80;49.77;97916.88;2095381;28;20319;-76
2022/11/26 09:08:14;;;;;;;9.40;2.70;;;;;;;17.92;48.26;97917.28;2094778;28;20208;-76
2022/11/26 09:09:16;;;;;;;11.52;2.85;;;;;;;18.28;46.50;97909.16;2094537;28;20204;-76
2022/11/26 09:10:18;;;;;;;15.32;3.10;;;;;;;18.85;45.88;97905.03;2081906;28;20635;-76
2022/11/26 09:11:20;;;;;;;9.52;3.22;;;;;;;18.90;45.81;97926.81;2081798;28;20320;-76
2022/11/26 09:12:21;;;;;;;6.68;2.58;;;;;;;19.04;45.32;97925.16;2094610;28;20202;-76
2022/11/26 09:13:22;;;;;;;10.40;2.85;;;;;;;19.39;44.34;97923.06;2094671;28;20230;-76
2022/11/26 09:14:27;;;;;;;11.63;3.45;;;;;;;19.35;44.45;97924.19;2094062;28;20284;-75
2022/11/26 09:15:32;;;;;;;10.60;3.03;;;;;;;19.11;45.01;97899.19;2093426;28;20197;-76
2022/11/26 09:16:33;;;;;;;6.07;2.42;;;;;;;19.24;44.51;97913.41;2094657;28;20196;-76
2022/11/26 09:17:35;;;;;;;7.78;2.75;;;;;;;19.41;43.82;97907.06;2093923;28;20196;-76
2022/11/26 09:18:36;;;;;;;8.85;3.05;;;;;;;17.85;47.97;97924.69;2088887;28;20208;-76
2022/11/26 09:19:38;;;;;;;4.47;2.33;;;;;;;17.25;49.06;97919.91;2088662;28;20328;-74
2022/11/26 09:20:39;;;;;;;19.75;9.98;;;;;;;15.39;54.14;97899.69;2089723;28;20200;-75
2022/11/26 09:21:41;;;;;;;7.88;2.65;;;;;;;15.34;53.90;97927.97;2089529;28;20283;-75
2022/11/26 09:22:43;;;;;;;33.22;20.65;;;;;;;17.47;50.27;97930.19;2089495;28;20208;-78
2022/11/26 09:23:44;;;;;;;11.10;3.92;;;;;;;17.29;49.78;97895.06;2091100;28;20197;-77
2022/11/26 09:24:49;;;;;;;8.57;3.58;;;;;;;17.28;48.32;97925.91;2086743;28;20217;-77
2022/11/26 09:25:50;;;;;;;9.27;3.50;;;;;;;16.13;51.14;97927.94;2084620;28;20197;-77
2022/11/26 09:26:52;;;;;;;6.68;3.08;;;;;;;16.27;51.01;97926.47;2084959;28;20208;-69
2022/11/26 09:27:54;;;;;;;9.10;3.35;;;;;;;16.53;50.45;97919.94;2086376;28;20287;-69
2022/11/26 09:28:55;;;;;;;6.50;2.80;;;;;;;16.55;50.27;97914.59;2085231;28;20762;-69
2022/11/26 09:29:57;;;;;;;10.45;3.40;;;;;;;16.58;50.71;97910.03;2088185;28;20795;-69
2022/11/26 09:31:00;;;;;;;12.38;3.45;;;;;;;17.65;49.91;97938.97;2098350;28;20201;-69
2022/11/26 09:32:02;;;;;;;13.13;3.58;;;;;;;18.26;48.14;97929.53;2098948;28;20674;-69
2022/11/26 09:33:24;;;;;;;8.15;2.50;;;;;;;16.46;50.30;97932.53;2099643;28;20291;-77
2022/11/26 09:34:26;;;;;;;13.02;3.03;;;;;;;17.21;49.28;97931.56;2099318;28;20214;-77
2022/11/26 09:35:31;;;;;;;6.57;2.38;;;;;;;19.02;46.37;97919.09;2096980;28;20196;-76
2022/11/26 09:36:32;;;;;;;7.72;2.60;;;;;;;20.00;42.82;97941.47;2082805;28;20201;-76
2022/11/26 09:37:34;;;;;;;10.20;2.97;;;;;;;20.49;42.91;97934.00;2082897;28;20284;-76
2022/11/26 09:38:36;;;;;;;7.93;3.42;;;;;;;20.33;41.65;97934.13;2090405;28;20272;-77
2022/11/26 09:39:37;;;;;;;12.15;2.88;;;;;;;20.27;43.14;97943.31;2087327;28;20264;-76
2022/11/26 09:40:49;;;;;;;10.35;2.50;;;;;;;19.72;43.10;97921.94;2097880;28;20207;-70
2022/11/26 09:42:06;;;;;;;12.45;2.60;;;;;;;19.46;43.33;97943.88;2088886;28;20364;-69
2022/11/26 09:43:28;;;;;;;11.05;2.90;;;;;;;18.88;44.23;97941.03;2091018;28;20207;-69
2022/11/26 09:44:48;;;;;;;10.65;3.25;;;;;;;18.55;44.70;97942.03;2096148;28;20270;-70
2022/11/26 09:45:58;;;;;;;10.10;3.00;;;;;;;19.21;43.94;97940.91;2096368;28;20200;-69
2022/11/26 09:47:05;;;;;;;8.50;2.63;;;;;;;19.89;43.05;97938.63;2089774;28;20231;-69
2022/11/26 09:48:21;;;;;;;11.13;2.65;;;;;;;18.29;44.97;97939.06;2082461;28;20193;-69
2022/11/26 09:49:23;;;;;;;9.00;2.25;;;;;;;19.54;42.80;97937.19;2088035;28;20247;-69
2022/11/26 09:50:32;;;;;;;14.30;3.05;;;;;;;20.55;41.74;97941.56;2090127;28;20772;-69
2022/11/26 09:51:34;;;;;;;9.18;2.40;;;;;;;20.20;41.60;97937.56;2089718;28;20211;-70
2022/11/26 09:53:02;;;;;;;7.85;2.40;;;;;;;20.64;41.60;97940.94;2081915;28;20190;-70
2022/11/26 09:54:04;;;;;;;14.60;2.30;;;;;;;19.29;42.73;97924.56;2083800;28;20228;-70
2022/11/26 09:55:17;;;;;;;6.97;2.33;;;;;;;17.80;45.79;97934.63;2096526;28;20224;-70
2022/11/26 09:56:26;;;;;;;10.70;2.53;;;;;;;17.25;47.91;97935.75;2097778;28;20199;-69
2022/11/26 09:57:34;;;;;;;5.85;1.98;;;;;;;16.70;48.13;97937.56;2098546;28;20307;-69
2022/11/26 09:58:35;;;;;;;14.25;2.30;;;;;;;17.03;49.43;97936.84;2090467;28;20600;-69
2022/11/26 09:59:40;;;;;;;8.70;2.17;;;;;;;19.29;45.23;97947.53;2088175;28;20220;-70
2022/11/26 10:00:48;;;;;;;10.13;2.75;;;;;;;18.21;44.59;97952.72;2095919;28;20199;-70
2022/11/26 10:01:50;;;;;;;14.40;2.35;;;;;;;18.93;45.27;97945.19;2097419;28;20227;-69
2022/11/26 10:02:53;;;;;;;11.25;2.30;;;;;;;18.57;45.70;97945.47;2096798;28;20201;-70
2022/11/26 10:03:55;;;;;;;10.57;2.95;;;;;;;19.62;43.19;97949.97;2096439;28;20281;-70
2022/11/26 10:04:56;;;;;;;12.50;2.55;;;;;;;20.38;41.80;97935.53;2097680;28;20275;-70
2022/11/26 10:06:08;;;;;;;11.43;2.60;;;;;;;21.43;40.77;97940.22;2090546;28;20197;-70
2022/11/26 10:07:30;;;;;;;13.35;3.53;;;;;;;20.77;41.99;97945.50;2090535;28;20295;-69
2022/11/26 10:08:49;;;;;;;6.00;2.38;;;;;;;21.49;40.32;97953.91;2096283;28;20687;-70
2022/11/26 10:10:16;;;;;;;7.53;2.08;;;;;;;21.44;39.75;97947.22;2095622;28;20230;-70
2022/11/26 10:11:51;;;;;;;10.40;3.25;;;;;;;21.87;39.44;97944.28;2087855;28;20284;-70
2022/11/26 10:13:05;;;;;;;8.75;2.50;;;;;;;22.17;39.60;97943.06;2093787;28;20282;-70
2022/11/26 10:14:54;;;;;;;6.47;2.20;;;;;;;20.37;41.67;97949.75;2095704;28;20203;-70
2022/11/26 10:16:26;;;;;;;11.73;4.97;;;;;;;20.32;42.68;97951.00;2081161;28;20230;-71
2022/11/26 10:17:56;;;;;;;24.83;13.20;;;;;;;21.09;40.68;97950.47;2082639;28;20838;-68
2022/11/26 10:19:25;;;;;;;24.42;10.70;;;;;;;20.56;41.17;97941.44;2096506;28;20913;-68
2022/11/26 10:20:49;;;;;;;11.32;4.05;;;;;;;17.63;46.30;97952.22;2096682;28;20203;-67
2022/11/26 10:21:58;;;;;;;12.65;3.72;;;;;;;16.62;48.43;97945.84;2096203;28;20589;-67
2022/11/26 10:23:30;;;;;;;10.75;3.30;;;;;;;14.78;52.05;97947.84;2096438;28;20203;-67
2022/11/26 10:24:40;;;;;;;9.85;3.30;;;;;;;14.24;53.34;97942.09;2094714;28;20973;-67
2022/11/26 10:25:49;;;;;;;9.27;2.88;;;;;;;14.14;54.56;97931.94;2095696;28;20235;-67
2022/11/26 10:26:52;;;;;;;10.75;3.55;;;;;;;14.11;55.19;97942.56;2097388;28;20250;-67
2022/11/26 10:27:58;;;;;;;18.63;4.18;;;;;;;14.03;55.23;97942.00;2104122;28;20218;-67
2022/11/26 10:29:18;;;;;;;14.23;3.75;;;;;;;15.74;52.00;97936.72;2096355;28;20559;-67
2022/11/26 10:30:22;;;;;;;19.23;3.92;;;;;;;16.76;50.29;97937.25;2098067;28;20292;-67
2022/11/26 10:31:29;;;;;;;12.52;3.72;;;;;;;15.38;53.58;97936.59;2095950;28;20290;-76
2022/11/26 10:32:37;;;;;;;10.85;2.92;;;;;;;15.61;51.63;97925.88;2096995;28;20198;-69
2022/11/26 10:33:55;;;;;;;13.30;3.72;;;;;;;16.80;50.00;97927.41;2096670;28;20278;-67
2022/11/26 10:34:57;;;;;;;16.90;2.40;;;;;;;16.65;49.54;97924.59;2095950;28;20713;-67
2022/11/26 10:35:59;;;;;;;5.93;2.50;;;;;;;16.36;50.39;97941.81;2096036;28;20206;-67
2022/11/26 10:37:01;;;;;;;9.13;3.25;;;;;;;15.40;52.40;97938.25;2097363;28;20807;-67
2022/11/26 10:38:03;;;;;;;11.57;2.75;;;;;;;16.81;49.44;97932.63;2096460;28;20204;-67
2022/11/26 10:39:06;;;;;;;13.05;2.88;;;;;;;15.51;52.02;97941.25;2099468;28;20200;-67
2022/11/26 10:40:18;;;;;;;7.90;3.10;;;;;;;16.01;51.49;97941.72;2100471;28;20219;-67
2022/11/26 10:41:20;;;;;;;11.50;2.80;;;;;;;16.48;50.55;97909.59;2098486;28;20207;-67
2022/11/26 10:42:22;;;;;;;10.00;2.97;;;;;;;16.64;49.61;97932.59;2096628;28;20204;-67
2022/11/26 10:43:24;;;;;;;8.57;3.10;;;;;;;15.07;52.68;97933.50;2096771;28;20308;-67
2022/11/26 10:44:39;;;;;;;14.73;3.20;;;;;;;15.57;52.94;97926.97;2096144;28;20192;-67
2022/11/26 10:45:46;;;;;;;10.40;2.60;;;;;;;14.99;54.07;97931.19;2096329;28;20199;-67
2022/11/26 10:46:48;;;;;;;19.40;3.70;;;;;;;16.35;51.18;97923.44;2096002;28;20238;-67
2022/11/26 10:47:50;;;;;;;7.70;2.50;;;;;;;16.11;49.85;97924.56;2087757;28;20213;-67
2022/11/26 10:48:51;;;;;;;8.45;2.40;;;;;;;16.70;49.68;97927.00;2096662;28;20593;-68
2022/11/26 10:50:11;;;;;;;10.43;3.30;;;;;;;16.25;50.13;97912.47;2101103;28;20226;-67
2022/11/26 10:51:36;;;;;;;8.85;3.00;;;;;;;16.86;51.48;97931.53;2098593;28;20208;-67
2022/11/26 10:52:38;;;;;;;15.00;3.28;;;;;;;18.24;48.02;97933.19;2096706;28;20567;-67
2022/11/26 10:53:56;;;;;;;6.57;2.28;;;;;;;17.60;50.22;97933.91;2096239;28;20239;-67
2022/11/26 10:55:25;;;;;;;9.80;2.70;;;;;;;17.61;49.20;97926.84;2096524;28;20379;-68
2022/11/26 10:56:46;;;;;;;20.70;2.40;;;;;;;15.60;54.93;97932.06;2095802;28;20200;-67
2022/11/26 10:57:52;;;;;;;10.02;2.58;;;;;;;16.33;52.07;97924.38;2096158;28;20230;-68
2022/11/26 10:59:00;;;;;;;13.68;3.05;;;;;;;16.31;52.74;97909.56;2095194;28;20567;-67
2022/11/26 11:00:03;;;;;;;7.55;2.30;;;;;;;16.42;52.41;97899.34;2096908;28;20266;-68
2022/11/26 11:01:06;;;;;;;9.23;2.35;;;;;;;15.35;54.97;97906.84;2096438;28;20556;-67
2022/11/26 11:02:37;;;;;;;12.75;2.53;;;;;;;13.44;59.48;97922.31;2096512;28;20201;-68
2022/11/26 11:04:24;;;;;;;10.90;3.30;;;;;;;11.81;63.58;97914.41;2096157;28;20231;-67
2022/11/26 11:05:26;;;;;;;8.57;2.65;;;;;;;10.49;67.68;97903.09;2079314;28;20255;-67
2022/11/26 11:06:41;;;;;;;13.82;2.75;;;;;;;10.97;68.46;97914.97;2096679;28;20229;-67
2022/11/26 11:07:46;;;;;;;11.52;3.50;;;;;;;10.48;67.83;97906.63;2096198;28;20199;-67
2022/11/26 11:08:50;;;;;;;16.77;3.47;;;;;;;9.75;71.28;97892.56;2096445;28;20196;-67
2022/11/26 11:10:11;;;;;;;12.40;4.68;;;;;;;9.62;72.90;97920.66;2097453;28;20243;-67
2022/11/26 11:11:28;;;;;;;16.38;3.25;;;;;;;10.43;71.49;97898.88;2095965;28;20192;-67
2022/11/26 11:12:29;;;;;;;9.82;3.08;;;;;;;10.76;70.44;97907.63;2096538;28;20412;-67
2022/11/26 11:13:42;;;;;;;8.00;2.22;;;;;;;11.53;68.12;97912.56;2096493;28;20235;-67
2022/11/26 11:14:45;;;;;;;9.18;2.28;;;;;;;11.26;66.14;97915.06;2097421;28;20741;-67
2022/11/26 11:15:58;;;;;;;7.47;2.88;;;;;;;11.46;67.35;97907.56;2096580;28;20860;-67
2022/11/26 11:17:00;;;;;;;16.95;2.38;;;;;;;11.98;64.37;97895.59;2096505;28;20192;-66
2022/11/26 11:18:16;;;;;;;10.55;2.78;;;;;;;12.23;63.04;97908.78;2097361;28;20647;-66
2022/11/26 11:19:23;;;;;;;10.55;3.95;;;;;;;13.99;58.18;97922.00;2095704;28;20295;-66
2022/11/26 11:20:37;;;;;;;10.80;3.08;;;;;;;15.15;55.61;97915.59;2096169;28;20786;-66
2022/11/26 11:21:43;;;;;;;9.10;2.60;;;;;;;15.33;54.73;97913.09;2096016;28;20224;-65
2022/11/26 11:22:56;;;;;;;10.27;2.65;;;;;;;16.14;51.59;97878.75;2096176;28;20555;-66
2022/11/26 11:24:14;;;;;;;13.57;3.00;;;;;;;15.11;52.52;97908.78;2096513;28;20543;-66
2022/11/26 11:25:22;;;;;;;8.13;2.33;;;;;;;16.53;51.40;97914.66;2095114;28;20280;-66
2022/11/26 11:26:24;;;;;;;9.30;2.58;;;;;;;17.28;49.48;97912.69;2096110;28;20295;-66
2022/11/26 11:27:36;;;;;;;8.23;2.53;;;;;;;17.36;48.48;97909.66;2094360;28;21187;-66
2022/11/26 11:28:48;;;;;;;11.20;2.70;;;;;;;18.43;46.62;97907.41;2095695;28;20330;-66
2022/11/26 11:29:50;;;;;;;9.75;2.30;;;;;;;18.73;46.13;97911.91;2095951;28;20253;-66
2022/11/26 11:31:07;;;;;;;9.13;2.45;;;;;;;18.38;45.72;97909.47;2097166;28;20356;-66
2022/11/26 11:32:33;;;;;;;6.38;2.20;;;;;;;16.60;49.57;97909.94;2095907;28;20204;-66
2022/11/26 11:33:34;;;;;;;6.43;1.92;;;;;;;15.60;52.09;97912.81;2097421;28;20280;-66
2022/11/26 11:34:38;;;;;;;10.85;2.72;;;;;;;17.58;47.93;97917.28;2094538;28;20262;-68
2022/11/26 11:35:40;;;;;;;10.00;3.17;;;;;;;18.55;46.51;97916.47;2097061;28;20203;-66
2022/11/26 11:36:41;;;;;;;15.85;2.88;;;;;;;18.07;46.68;97911.19;2097079;28;20197;-66
2022/11/26 11:37:48;;;;;;;10.18;2.58;;;;;;;19.64;44.58;97918.94;2096517;28;20551;-67
2022/11/26 11:38:57;;;;;;;10.43;2.40;;;;;;;18.82;45.61;97914.97;2097189;28;20850;-67
2022/11/26 11:40:05;;;;;;;11.07;2.40;;;;;;;18.16;46.05;97909.81;2095403;28;20227;-66
2022/11/26 11:41:16;;;;;;;9.15;2.58;;;;;;;17.39;47.06;97906.00;2096561;28;20205;-67
2022/11/26 11:42:28;;;;;;;12.45;2.72;;;;;;;17.26;47.89;97906.63;2096170;28;20197;-66
2022/11/26 11:43:35;;;;;;;14.55;2.83;;;;;;;17.40;48.71;97905.91;2097563;28;20202;-66
2022/11/26 11:44:43;;;;;;;12.98;2.25;;;;;;;18.37;46.19;97913.06;2096618;28;20313;-66
2022/11/26 11:46:18;;;;;;;9.75;3.30;;;;;;;17.89;47.49;97904.22;2095980;28;20764;-67
2022/11/26 11:47:39;;;;;;;12.15;2.10;;;;;;;19.51;43.02;97875.59;2094679;28;20198;-66
2022/11/26 11:48:59;;;;;;;8.05;2.38;;;;;;;18.14;45.89;97908.22;2095206;28;20359;-66
2022/11/26 11:50:22;;;;;;;7.47;2.13;;;;;;;19.03;45.33;97903.16;2096175;28;20234;-67
2022/11/26 11:51:47;;;;;;;18.80;2.70;;;;;;;18.36;45.58;97900.78;2096339;28;20865;-66
2022/11/26 11:52:54;;;;;;;7.95;2.90;;;;;;;19.09;44.45;97904.56;2096045;28;20266;-66
2022/11/26 11:54:22;;;;;;;6.97;2.20;;;;;;;16.88;45.94;97906.78;2096952;28;20322;-66
2022/11/26 11:56:02;;;;;;;14.50;3.10;;;;;;;15.27;51.00;97905.47;2090815;28;20258;-67
2022/11/26 11:57:28;;;;;;;16.38;5.70;;;;;;;16.62;48.78;97902.78;2087962;28;20237;-67
2022/11/26 11:59:01;;;;;;;9.00;2.25;;;;;;;18.11;46.25;97907.44;2097170;28;20194;-68
2022/11/26 12:00:18;;;;;;;9.27;2.88;;;;;;;18.32;45.95;97899.25;2094602;28;20560;-68
2022/11/26 12:01:42;;;;;;;11.55;2.40;;;;;;;19.23;46.26;97901.09;2095060;28;20198;-67
2022/11/26 12:03:08;;;;;;;10.63;2.72;;;;;;;19.08;45.83;97893.16;2095443;28;20821;-68
2022/11/26 12:04:43;;;;;;;11.18;2.67;;;;;;;19.51;44.68;97892.31;2095886;28;20245;-67
2022/11/26 12:06:02;;;;;;;10.40;2.35;;;;;;;17.27;48.26;97889.88;2095907;28;20218;-67
2022/11/26 12:07:33;;;;;;;8.70;2.78;;;;;;;15.55;51.56;97889.31;2095993;28;20220;-68
2022/11/26 12:08:43;;;;;;;8.98;2.70;;;;;;;15.86;54.65;97881.81;2103844;28;20229;-69
2022/11/26 12:10:04;;;;;;;16.40;3.38;;;;;;;16.03;53.43;97883.69;2094601;28;20581;-69
2022/11/26 12:11:08;;;;;;;12.93;2.63;;;;;;;15.63;53.83;97884.56;2095541;28;20289;-69
2022/11/26 12:12:32;;;;;;;11.82;3.70;;;;;;;15.25;53.62;97870.47;2096122;28;20235;-70
2022/11/26 12:13:45;;;;;;;8.48;2.45;;;;;;;12.85;57.42;97884.94;2097982;28;20195;-69
2022/11/26 12:14:51;;;;;;;11.75;2.42;;;;;;;11.87;60.90;97876.69;2096251;28;20227;-69
2022/11/26 12:16:00;;;;;;;10.25;2.45;;;;;;;12.44;60.66;97874.94;2095965;28;20202;-69
2022/11/26 12:17:10;;;;;;;10.57;2.63;;;;;;;13.34;57.87;97877.13;2096772;28;20200;-69
2022/11/26 12:18:30;;;;;;;18.52;2.40;;;;;;;11.81;62.38;97877.75;2095813;28;20567;-70
2022/11/26 12:19:38;;;;;;;5.90;2.10;;;;;;;12.55;58.59;97875.44;2095883;28;20250;-67
2022/11/26 12:20:44;;;;;;;16.33;2.65;;;;;;;11.97;59.24;97883.41;2096979;28;20203;-67
2022/11/26 12:22:03;;;;;;;12.43;2.75;;;;;;;12.36;59.26;97882.22;2095648;28;20228;-67
2022/11/26 12:23:26;;;;;;;10.35;1.80;;;;;;;12.96;59.41;97882.81;2096390;28;20223;-67
2022/11/26 12:24:44;;;;;;;13.05;3.38;;;;;;;15.43;54.03;97880.19;2096762;28;20196;-67
2022/11/26 12:25:50;;;;;;;5.25;1.60;;;;;;;15.83;50.32;97870.53;2097076;28;20207;-67
2022/11/26 12:27:01;;;;;;;40.60;23.52;;;;;;;16.80;50.80;97880.78;2096550;28;20207;-65
2022/11/26 12:28:14;;;;;;;14.88;3.78;;;;;;;17.14;50.88;97886.16;2095986;28;20219;-67
2022/11/26 12:29:34;;;;;;;48.38;24.60;;;;;;;17.76;49.71;97885.56;2094246;28;20199;-67
2022/11/26 12:30:49;;;;;;;20.80;5.50;;;;;;;18.40;47.50;97877.66;2095386;28;20220;-68
2022/11/26 12:31:53;;;;;;;11.35;2.15;;;;;;;18.85;46.04;97893.59;2095932;28;20647;-66
2022/11/26 12:33:09;;;;;;;9.60;3.03;;;;;;;19.08;45.23;97887.84;2095978;28;20230;-69
2022/11/26 12:34:41;;;;;;;9.73;2.13;;;;;;;18.04;48.10;97892.00;2094518;28;20238;-69
2022/11/26 12:35:51;;;;;;;11.00;2.70;;;;;;;17.86;48.48;97876.19;2095963;28;20224;-69
2022/11/26 12:36:59;;;;;;;23.52;2.90;;;;;;;18.56;46.96;97890.84;2095096;28;20191;-69
2022/11/26 12:38:06;;;;;;;9.45;2.22;;;;;;;19.04;45.61;97880.16;2095626;28;20196;-69
2022/11/26 12:39:19;;;;;;;9.68;2.38;;;;;;;19.90;45.45;97880.22;2095543;28;20329;-69
2022/11/26 12:40:33;;;;;;;13.15;2.60;;;;;;;20.27;44.58;97871.72;2096328;28;20638;-69
2022/11/26 12:41:46;;;;;;;6.32;2.17;;;;;;;20.47;43.61;97882.84;2095013;28;20286;-69
2022/11/26 12:43:03;;;;;;;9.15;2.40;;;;;;;19.43;44.10;97884.00;2087775;28;20290;-69
2022/11/26 12:44:15;;;;;;;16.80;2.60;;;;;;;19.75;43.99;97871.41;2095850;28;20223;-69
2022/11/26 12:45:30;;;;;;;13.38;3.13;;;;;;;19.83;43.56;97868.34;2092929;28;20284;-69
2022/11/26 12:46:41;;;;;;;13.82;2.20;;;;;;;19.80;42.42;97880.88;2092179;28;20219;-69
2022/11/26 12:47:50;;;;;;;15.50;2.90;;;;;;;19.20;44.70;97873.00;2096245;28;20188;-69
2022/11/26 12:49:19;;;;;;;6.70;1.75;;;;;;;18.21;45.06;97868.13;2096096;28;20810;-69
2022/11/26 12:50:36;;;;;;;12.15;3.05;;;;;;;15.42;51.70;97878.47;2096666;28;20291;-67
2022/11/26 12:52:10;;;;;;;11.57;2.70;;;;;;;17.08;47.95;97881.22;2097328;28;20606;-67
2022/11/26 12:53:30;;;;;;;8.38;2.38;;;;;;;15.31;53.39;97876.34;2095428;28;20311;-67
2022/11/26 12:54:52;;;;;;;13.93;3.35;;;;;;;17.71;47.26;97863.81;2095990;28;20220;-67
2022/11/26 12:56:16;;;;;;;13.35;2.33;;;;;;;18.29;47.44;97878.28;2097698;28;20192;-65
2022/11/26 12:57:31;;;;;;;8.00;2.35;;;;;;;18.13;45.17;97869.50;2105074;28;20263;-65
2022/11/26 12:58:52;;;;;;;20.10;2.90;;;;;;;17.76;48.23;97865.28;2091507;28;20238;-67
2022/11/26 13:00:09;;;;;;;7.32;1.83;;;;;;;19.00;45.48;97868.06;2093690;28;20234;-66
2022/11/26 13:01:11;;;;;;;6.63;1.95;;;;;;;19.36;44.46;97869.44;2097920;28;20219;-66
2022/11/26 13:02:28;;;;;;;7.65;1.90;;;;;;;18.05;46.19;97873.41;2096247;28;20308;-66
2022/11/26 13:03:32;;;;;;;16.73;2.28;;;;;;;19.04;45.25;97877.53;2098186;28;20208;-67
2022/11/26 13:04:33;;;;;;;12.05;2.50;;;;;;;19.15;43.88;97848.63;2097024;28;20689;-66
2022/11/26 13:06:26;;;;;;;10.07;2.42;;;;;;;19.62;43.65;97866.97;2097343;28;20743;-66
2022/11/26 13:07:47;;;;;;;6.38;2.22;;;;;;;19.79;43.39;97871.22;2096821;28;20196;-66
2022/11/26 13:08:59;;;;;;;11.00;2.88;;;;;;;19.46;43.51;97875.03;2097763;28;20200;-66
2022/11/26 13:10:12;;;;;;;8.07;2.67;;;;;;;19.83;44.07;97878.06;2096584;28;20226;-66
2022/11/26 13:11:17;;;;;;;10.00;2.85;;;;;;;20.02;43.59;97865.38;2096957;28;20208;-66
2022/11/26 13:12:36;;;;;;;10.75;2.28;;;;;;;19.87;44.05;97866.31;2097203;28;20211;-70
2022/11/26 13:13:57;;;;;;;7.70;1.98;;;;;;;20.16;43.36;97867.13;2096716;28;20282;-70
2022/11/26 13:15:16;;;;;;;10.40;2.70;;;;;;;19.79;43.64;97873.88;2096016;28;20242;-69
2022/11/26 13:16:24;;;;;;;6.45;2.10;;;;;;;20.02;43.99;97872.44;2097273;28;20769;-69
2022/11/26 13:17:39;;;;;;;18.38;2.78;;;;;;;19.35;45.14;97865.06;2096644;28;20200;-71
2022/11/26 13:18:49;;;;;;;11.95;3.00;;;;;;;19.29;45.93;97862.78;2096311;28;20223;-70
2022/11/26 13:19:59;;;;;;;8.90;2.83;;;;;;;19.85;45.96;97868.22;2104520;28;20220;-70
2022/11/26 13:21:21;;;;;;;110.15;62.53;;;;;;;19.78;46.51;97870.34;2095287;28;20650;-70
2022/11/26 13:22:44;;;;;;;79.93;38.90;;;;;;;19.99;45.86;97867.34;2095426;28;20210;-68
2022/11/26 13:24:23;;;;;;;57.47;28.92;;;;;;;19.61;46.70;97865.28;2097313;28;20202;-70
2022/11/26 13:25:37;;;;;;;9.43;3.50;;;;;;;19.52;46.53;97845.50;2097097;28;20227;-71
2022/11/26 13:26:51;;;;;;;12.18;3.72;;;;;;;19.42;47.45;97867.25;2097520;28;20200;-73
2022/11/26 13:28:03;;;;;;;12.02;3.03;;;;;;;19.67;47.13;97865.75;2097151;28;20196;-73
2022/11/26 13:29:23;;;;;;;16.85;3.28;;;;;;;19.49;46.89;97872.16;2096616;28;20671;-73
2022/11/26 13:30:55;;;;;;;10.70;3.15;;;;;;;19.82;46.62;97873.66;2097159;28;20247;-73
2022/11/26 13:32:16;;;;;;;16.15;3.88;;;;;;;19.63;47.01;97874.84;2097486;28;20200;-74
2022/11/26 13:33:39;;;;;;;15.02;3.92;;;;;;;20.12;46.79;97868.25;2096100;28;20192;-73
2022/11/26 13:35:14;;;;;;;14.82;3.15;;;;;;;19.96;46.55;97867.53;2096196;28;20231;-73
2022/11/26 13:36:18;;;;;;;22.05;4.57;;;;;;;20.26;45.50;97867.38;2097335;28;20193;-73
2022/11/26 13:37:38;;;;;;;13.63;3.20;;;;;;;20.36;44.91;97868.47;2096871;28;20228;-73